Time,TemperatureF,DewpointF,PressureIn,WindDirection,WindDirectionDegrees,WindSpeedMPH,WindSpeedGustMPH,Humidity,HourlyPrecipIn,Conditions,Clouds,dailyrainin,SoftwareType,DateUTC
2013-04-28 00:11:00,57.4,44.0,30.17,North,-999,-999.0,-999.0,61,0.00,,,0.00,weatherlink.com 1.10,2013-04-28 07:11:00,
2013-04-28 00:26:00,57.3,44.0,30.17,North,-999,-999.0,-999.0,62,0.00,,,0.00,weatherlink.com 1.10,2013-04-28 07:26:00,
2013-04-28 00:41:00,57.1,44.0,30.17,North,-999,-999.0,-999.0,62,0.00,,,0.00,weatherlink.com 1.10,2013-04-28 07:41:00,
2013-04-28 00:56:00,56.8,44.0,30.17,North,-999,-999.0,-999.0,63,0.00,,,0.00,weatherlink.com 1.10,2013-04-28 07:56:00,
2013-04-28 01:11:00,56.5,44.0,30.16,North,-999,-999.0,-999.0,63,0.00,,,0.00,weatherlink.com 1.10,2013-04-28 08:11:00,
2013-04-28 01:26:00,56.2,44.0,30.16,North,-999,-999.0,-999.0,64,0.00,,,0.00,weatherlink.com 1.10,2013-04-28 08:26:00,
2013-04-28 01:41:00,55.8,44.0,30.16,North,-999,-999.0,-999.0,65,0.00,,,0.00,weatherlink.com 1.10,2013-04-28 08:41:00,
2013-04-28 01:56:00,55.6,44.0,30.16,North,-999,-999.0,-999.0,65,0.00,,,0.00,weatherlink.com 1.10,2013-04-28 08:56:00,
2013-04-28 02:11:00,55.4,44.0,30.16,North,-999,-999.0,-999.0,66,0.00,,,0.00,weatherlink.com 1.10,2013-04-28 09:11:00,
2013-04-28 02:26:00,55.1,44.0,30.15,North,-999,-999.0,-999.0,67,0.00,,,0.00,weatherlink.com 1.10,2013-04-28 09:26:00,
2013-04-28 02:42:00,54.8,45.0,30.16,North,-999,-999.0,-999.0,69,0.00,,,0.00,weatherlink.com 1.10,2013-04-28 09:42:00,
2013-04-28 02:57:00,54.5,45.0,30.17,North,-999,-999.0,-999.0,70,0.00,,,0.00,weatherlink.com 1.10,2013-04-28 09:57:00,
2013-04-28 03:12:00,54.2,45.0,30.17,North,-999,-999.0,-999.0,72,0.00,,,0.00,weatherlink.com 1.10,2013-04-28 10:12:00,
2013-04-28 03:27:00,54.0,45.0,30.16,North,-999,-999.0,-999.0,72,0.00,,,0.00,weatherlink.com 1.10,2013-04-28 10:27:00,
2013-04-28 03:42:00,53.9,45.0,30.17,North,-999,-999.0,-999.0,73,0.00,,,0.00,weatherlink.com 1.10,2013-04-28 10:42:00,
2013-04-28 03:57:00,53.7,46.0,30.16,North,-999,-999.0,-999.0,75,0.00,,,0.00,weatherlink.com 1.10,2013-04-28 10:57:00,
2013-04-28 04:12:00,53.3,46.0,30.17,North,-999,-999.0,-999.0,76,0.00,,,0.00,weatherlink.com 1.10,2013-04-28 11:12:00,
2013-04-28 04:27:00,53.2,46.0,30.17,North,-999,-999.0,-999.0,77,0.00,,,0.00,weatherlink.com 1.10,2013-04-28 11:27:00,
2013-04-28 04:42:00,53.2,46.0,30.17,North,-999,-999.0,-999.0,76,0.00,,,0.00,weatherlink.com 1.10,2013-04-28 11:42:00,
2013-04-28 04:57:00,53.0,47.0,30.17,North,-999,-999.0,-999.0,79,0.00,,,0.00,weatherlink.com 1.10,2013-04-28 11:57:00,
2013-04-28 05:12:00,52.3,47.0,30.17,North,-999,-999.0,-999.0,82,0.00,,,0.00,weatherlink.com 1.10,2013-04-28 12:12:00,
2013-04-28 05:27:00,52.1,47.0,30.17,North,-999,-999.0,-999.0,82,0.00,,,0.00,weatherlink.com 1.10,2013-04-28 12:27:00,
2013-04-28 05:42:00,52.3,46.0,30.17,North,-999,-999.0,-999.0,79,0.00,,,0.00,weatherlink.com 1.10,2013-04-28 12:42:00,
2013-04-28 05:58:00,52.6,47.0,30.17,North,-999,-999.0,-999.0,80,0.00,,,0.00,weatherlink.com 1.10,2013-04-28 12:58:00,
2013-04-28 06:13:00,52.3,47.0,30.17,North,-999,-999.0,-999.0,81,0.00,,,0.00,weatherlink.com 1.10,2013-04-28 13:13:00,
2013-04-28 06:28:00,52.3,47.0,30.18,North,-999,-999.0,-999.0,81,0.00,,,0.00,weatherlink.com 1.10,2013-04-28 13:28:00,
2013-04-28 06:43:00,52.4,47.0,30.18,North,-999,-999.0,-999.0,82,0.00,,,0.00,weatherlink.com 1.10,2013-04-28 13:43:00,
2013-04-28 06:58:00,52.1,47.0,30.18,North,-999,-999.0,-999.0,83,0.00,,,0.00,weatherlink.com 1.10,2013-04-28 13:58:00,
2013-04-28 07:13:00,52.3,47.0,30.18,North,-999,-999.0,-999.0,83,0.00,,,0.00,weatherlink.com 1.10,2013-04-28 14:13:00,
2013-04-28 07:28:00,52.2,48.0,30.19,North,-999,-999.0,-999.0,84,0.00,,,0.00,weatherlink.com 1.10,2013-04-28 14:28:00,
2013-04-28 07:43:00,52.3,48.0,30.19,West,262,1.0,10.0,84,0.00,,,0.00,weatherlink.com 1.10,2013-04-28 14:43:00,
2013-04-28 07:58:00,52.5,48.0,30.18,WSW,238,1.0,7.0,83,0.00,,,0.00,weatherlink.com 1.10,2013-04-28 14:58:00,
2013-04-28 08:13:00,52.7,47.0,30.19,North,-999,-999.0,-999.0,81,0.00,,,0.00,weatherlink.com 1.10,2013-04-28 15:13:00,
2013-04-28 08:28:00,52.9,47.0,30.19,WNW,285,2.0,9.0,81,0.00,,,0.00,weatherlink.com 1.10,2013-04-28 15:28:00,
2013-04-28 08:43:00,53.5,48.0,30.19,SW,236,0.0,7.0,80,0.00,,,0.00,weatherlink.com 1.10,2013-04-28 15:43:00,
2013-04-28 08:58:00,53.9,47.0,30.19,WSW,254,7.0,11.0,76,0.00,,,0.00,weatherlink.com 1.10,2013-04-28 15:58:00,
2013-04-28 09:13:00,54.8,48.0,30.19,WSW,239,4.0,8.0,78,0.00,,,0.00,weatherlink.com 1.10,2013-04-28 16:13:00,
2013-04-28 09:28:00,54.0,47.0,30.19,West,263,3.0,7.0,77,0.00,,,0.00,weatherlink.com 1.10,2013-04-28 16:28:00,
2013-04-28 09:43:00,57.5,50.0,30.19,South,185,5.0,13.0,75,0.00,,,0.00,weatherlink.com 1.10,2013-04-28 16:43:00,
2013-04-28 09:58:00,59.0,49.0,30.19,SW,214,2.0,11.0,70,0.00,,,0.00,weatherlink.com 1.10,2013-04-28 16:58:00,
2013-04-28 10:13:00,57.1,48.0,30.19,SSW,211,5.0,9.0,72,0.00,,,0.00,weatherlink.com 1.10,2013-04-28 17:13:00,
2013-04-28 10:28:00,53.9,49.0,30.20,SW,214,1.0,9.0,82,0.01,,,0.01,weatherlink.com 1.10,2013-04-28 17:28:00,
2013-04-28 10:43:00,53.7,49.0,30.20,SSW,194,4.0,10.0,84,0.02,,,0.02,weatherlink.com 1.10,2013-04-28 17:43:00,
2013-04-28 10:58:00,54.9,52.0,30.20,South,183,4.0,8.0,88,0.02,,,0.02,weatherlink.com 1.10,2013-04-28 17:58:00,
2013-04-28 11:13:00,59.0,53.0,30.20,WSW,240,3.0,11.0,80,0.02,,,0.02,weatherlink.com 1.10,2013-04-28 18:13:00,
2013-04-28 11:28:00,59.4,50.0,30.20,SW,225,5.0,12.0,72,0.01,,,0.02,weatherlink.com 1.10,2013-04-28 18:28:00,
2013-04-28 11:43:00,60.3,48.0,30.20,South,182,3.0,10.0,65,0.00,,,0.02,weatherlink.com 1.10,2013-04-28 18:43:00,
2013-04-28 11:58:00,59.0,48.0,30.20,WSW,241,8.0,11.0,66,0.00,,,0.02,weatherlink.com 1.10,2013-04-28 18:58:00,
2013-04-28 12:13:00,61.2,47.0,30.19,SSW,192,3.0,10.0,61,0.00,,,0.02,weatherlink.com 1.10,2013-04-28 19:13:00,
2013-04-28 12:28:00,58.2,47.0,30.20,WSW,246,4.0,11.0,66,0.00,,,0.02,weatherlink.com 1.10,2013-04-28 19:28:00,
2013-04-28 12:59:00,63.4,48.0,30.18,South,191,3.0,13.0,57,0.00,,,0.02,weatherlink.com 1.10,2013-04-28 19:59:00,
2013-04-28 13:14:00,60.4,46.0,30.17,West,270,7.0,10.0,60,0.00,,,0.02,weatherlink.com 1.10,2013-04-28 20:14:00,
2013-04-28 13:29:00,64.4,47.0,30.17,SSW,203,8.0,13.0,54,0.00,,,0.02,weatherlink.com 1.10,2013-04-28 20:29:00,
2013-04-28 13:44:00,61.3,47.0,30.17,WSW,249,5.0,11.0,60,0.00,,,0.02,weatherlink.com 1.10,2013-04-28 20:44:00,
2013-04-28 13:59:00,64.0,49.0,30.16,SSW,199,5.0,13.0,58,0.00,,,0.02,weatherlink.com 1.10,2013-04-28 20:59:00,
2013-04-28 14:14:00,63.4,48.0,30.16,West,262,3.0,14.0,57,0.00,,,0.02,weatherlink.com 1.10,2013-04-28 21:14:00,
2013-04-28 14:29:00,62.2,47.0,30.15,SW,228,3.0,15.0,58,0.00,,,0.02,weatherlink.com 1.10,2013-04-28 21:29:00,
2013-04-28 14:44:00,61.9,48.0,30.15,West,263,0.0,13.0,60,0.00,,,0.02,weatherlink.com 1.10,2013-04-28 21:44:00,
2013-04-28 14:59:00,63.6,46.0,30.14,WSW,245,7.0,17.0,53,0.00,,,0.02,weatherlink.com 1.10,2013-04-28 21:59:00,
2013-04-28 15:14:00,63.9,47.0,30.14,West,262,9.0,16.0,54,0.00,,,0.02,weatherlink.com 1.10,2013-04-28 22:14:00,
2013-04-28 15:29:00,63.7,47.0,30.13,WSW,250,2.0,17.0,54,0.00,,,0.02,weatherlink.com 1.10,2013-04-28 22:29:00,
2013-04-28 15:44:00,64.3,44.0,30.12,SSW,202,3.0,17.0,48,0.00,,,0.02,weatherlink.com 1.10,2013-04-28 22:44:00,
2013-04-28 15:59:00,64.1,45.0,30.12,WSW,258,17.0,17.0,51,0.00,,,0.02,weatherlink.com 1.10,2013-04-28 22:59:00,
2013-04-28 16:14:00,63.3,43.0,30.11,SW,233,17.0,18.0,48,0.00,,,0.02,weatherlink.com 1.10,2013-04-28 23:14:00,
2013-04-28 16:29:00,62.8,44.0,30.11,South,191,5.0,18.0,51,0.00,,,0.02,weatherlink.com 1.10,2013-04-28 23:29:00,
2013-04-28 16:44:00,62.9,43.0,30.09,West,261,5.0,19.0,49,0.00,,,0.02,weatherlink.com 1.10,2013-04-28 23:44:00,
2013-04-28 16:59:00,62.8,41.0,30.09,WNW,286,10.0,23.0,45,0.00,,,0.02,weatherlink.com 1.10,2013-04-28 23:59:00,
2013-04-28 17:14:00,62.3,42.0,30.09,West,262,7.0,22.0,47,0.00,,,0.02,weatherlink.com 1.10,2013-04-29 00:14:00,
2013-04-28 17:29:00,62.0,41.0,30.08,WNW,301,6.0,19.0,46,0.00,,,0.02,weatherlink.com 1.10,2013-04-29 00:29:00,
2013-04-28 17:44:00,61.9,41.0,30.08,WSW,242,12.0,16.0,46,0.00,,,0.02,weatherlink.com 1.10,2013-04-29 00:44:00,
2013-04-28 17:59:00,61.7,41.0,30.07,WSW,254,7.0,16.0,47,0.00,,,0.02,weatherlink.com 1.10,2013-04-29 00:59:00,
2013-04-28 18:14:00,61.7,41.0,30.07,West,262,8.0,17.0,46,0.00,,,0.02,weatherlink.com 1.10,2013-04-29 01:14:00,
2013-04-28 18:29:00,61.6,41.0,30.07,WSW,250,8.0,15.0,47,0.00,,,0.02,weatherlink.com 1.10,2013-04-29 01:29:00,
2013-04-28 18:44:00,61.4,41.0,30.06,WSW,242,3.0,14.0,48,0.00,,,0.02,weatherlink.com 1.10,2013-04-29 01:44:00,
2013-04-28 18:59:00,61.2,41.0,30.05,WNW,294,1.0,10.0,47,0.00,,,0.02,weatherlink.com 1.10,2013-04-29 01:59:00,
2013-04-28 19:14:00,61.1,41.0,30.04,WSW,252,5.0,11.0,48,0.00,,,0.02,weatherlink.com 1.10,2013-04-29 02:14:00,
2013-04-28 19:29:00,60.8,41.0,30.04,SW,231,7.0,10.0,49,0.00,,,0.02,weatherlink.com 1.10,2013-04-29 02:29:00,
2013-04-28 19:44:00,60.5,40.0,30.04,North,-999,-999.0,-999.0,48,0.00,,,0.02,weatherlink.com 1.10,2013-04-29 02:44:00,
2013-04-28 19:59:00,59.8,41.0,30.03,North,-999,-999.0,-999.0,50,0.00,,,0.02,weatherlink.com 1.10,2013-04-29 02:59:00,
2013-04-28 20:14:00,58.2,41.0,30.03,North,-999,-999.0,-999.0,53,0.00,,,0.02,weatherlink.com 1.10,2013-04-29 03:14:00,
2013-04-28 20:29:00,58.8,41.0,30.02,North,-999,-999.0,-999.0,52,0.00,,,0.02,weatherlink.com 1.10,2013-04-29 03:29:00,
2013-04-28 20:44:00,58.8,41.0,30.02,North,-999,-999.0,-999.0,52,0.00,,,0.02,weatherlink.com 1.10,2013-04-29 03:44:00,
2013-04-28 21:00:00,59.2,40.0,30.02,North,-999,-999.0,-999.0,49,0.00,,,0.02,weatherlink.com 1.10,2013-04-29 04:00:00,
2013-04-28 21:15:00,59.4,39.0,30.02,North,-999,-999.0,-999.0,48,0.00,,,0.02,weatherlink.com 1.10,2013-04-29 04:15:00,
2013-04-28 21:30:00,59.5,40.0,30.02,North,-999,-999.0,-999.0,48,0.00,,,0.02,weatherlink.com 1.10,2013-04-29 04:30:00,
2013-04-28 21:45:00,59.2,40.0,30.02,North,-999,-999.0,-999.0,50,0.00,,,0.02,weatherlink.com 1.10,2013-04-29 04:45:00,
2013-04-28 22:00:00,58.8,41.0,30.01,North,-999,-999.0,-999.0,52,0.00,,,0.02,weatherlink.com 1.10,2013-04-29 05:00:00,
2013-04-28 22:15:00,58.7,41.0,30.00,North,-999,-999.0,-999.0,53,0.00,,,0.02,weatherlink.com 1.10,2013-04-29 05:15:00,
2013-04-28 22:30:00,58.1,41.0,30.00,North,-999,-999.0,-999.0,53,0.00,,,0.02,weatherlink.com 1.10,2013-04-29 05:30:00,
2013-04-28 22:45:00,57.6,42.0,30.00,North,-999,-999.0,-999.0,57,0.00,,,0.02,weatherlink.com 1.10,2013-04-29 05:45:00,
2013-04-28 23:00:00,57.1,43.0,30.00,North,-999,-999.0,-999.0,59,0.00,,,0.02,weatherlink.com 1.10,2013-04-29 06:00:00,
2013-04-28 23:15:00,56.4,42.0,30.00,North,-999,-999.0,-999.0,60,0.00,,,0.02,weatherlink.com 1.10,2013-04-29 06:15:00,
2013-04-28 23:30:00,56.2,43.0,29.99,North,-999,-999.0,-999.0,61,0.00,,,0.02,weatherlink.com 1.10,2013-04-29 06:30:00,
2013-04-28 23:45:00,56.0,43.0,29.99,North,-999,-999.0,-999.0,61,0.00,,,0.02,weatherlink.com 1.10,2013-04-29 06:45:00,